sensor_id;sensor_type;location;lat;lon;timestamp;temperature;humidity
55173;DHT22;41061;52.822;6.860;2024-01-16T00:01:45;0.40;99.90
55173;DHT22;41061;52.822;6.860;2024-01-16T00:04:11;0.40;99.90
55173;DHT22;41061;52.822;6.860;2024-01-16T00:06:41;0.30;99.90
55173;DHT22;41061;52.822;6.860;2024-01-16T00:09:07;0.30;99.90
55173;DHT22;41061;52.822;6.860;2024-01-16T00:11:34;0.30;99.90
55173;DHT22;41061;52.822;6.860;2024-01-16T00:13:59;0.30;99.90
55173;DHT22;41061;52.822;6.860;2024-01-16T00:16:25;0.20;99.90
55173;DHT22;41061;52.822;6.860;2024-01-16T00:18:51;0.20;99.90
55173;DHT22;41061;52.822;6.860;2024-01-16T00:21:16;0.20;99.90
55173;DHT22;41061;52.822;6.860;2024-01-16T00:23:45;0.20;99.90
55173;DHT22;41061;52.822;6.860;2024-01-16T00:26:22;0.20;99.90
55173;DHT22;41061;52.822;6.860;2024-01-16T00:28:48;0.20;99.90
55173;DHT22;41061;52.822;6.860;2024-01-16T00:31:14;0.10;99.90
55173;DHT22;41061;52.822;6.860;2024-01-16T00:33:40;0.10;99.90
55173;DHT22;41061;52.822;6.860;2024-01-16T00:36:06;0.20;99.90
55173;DHT22;41061;52.822;6.860;2024-01-16T00:38:35;0.10;99.90
55173;DHT22;41061;52.822;6.860;2024-01-16T00:41:01;0.10;99.90
55173;DHT22;41061;52.822;6.860;2024-01-16T00:43:26;0.10;99.90
55173;DHT22;41061;52.822;6.860;2024-01-16T00:45:52;0.10;99.90
55173;DHT22;41061;52.822;6.860;2024-01-16T00:48:18;0.10;99.90
55173;DHT22;41061;52.822;6.860;2024-01-16T00:50:46;0.10;99.90
55173;DHT22;41061;52.822;6.860;2024-01-16T00:53:14;0.00;99.90
55173;DHT22;41061;52.822;6.860;2024-01-16T00:55:39;0.00;99.90
55173;DHT22;41061;52.822;6.860;2024-01-16T00:58:05;0.00;99.90
55173;DHT22;41061;52.822;6.860;2024-01-16T01:00:31;0.00;99.90
55173;DHT22;41061;52.822;6.860;2024-01-16T01:02:57;-0.10;99.90
55173;DHT22;41061;52.822;6.860;2024-01-16T01:05:24;-0.10;99.90
55173;DHT22;41061;52.822;6.860;2024-01-16T01:07:57;-0.10;99.90
55173;DHT22;41061;52.822;6.860;2024-01-16T01:10:23;-0.20;99.90
55173;DHT22;41061;52.822;6.860;2024-01-16T01:12:49;-0.20;99.90
55173;DHT22;41061;52.822;6.860;2024-01-16T01:15:15;-0.20;99.90
55173;DHT22;41061;52.822;6.860;2024-01-16T01:17:41;-0.10;99.90
55173;DHT22;41061;52.822;6.860;2024-01-16T01:20:08;-0.10;99.90
55173;DHT22;41061;52.822;6.860;2024-01-16T01:22:34;-0.10;99.90
55173;DHT22;41061;52.822;6.860;2024-01-16T01:24:59;-0.10;99.90
55173;DHT22;41061;52.822;6.860;2024-01-16T01:27:25;-0.20;99.90
55173;DHT22;41061;52.822;6.860;2024-01-16T01:29:51;-0.20;99.90
55173;DHT22;41061;52.822;6.860;2024-01-16T01:32:17;-0.20;99.90
55173;DHT22;41061;52.822;6.860;2024-01-16T01:34:43;-0.20;99.90
55173;DHT22;41061;52.822;6.860;2024-01-16T01:37:08;-0.20;99.90
55173;DHT22;41061;52.822;6.860;2024-01-16T01:39:34;-0.20;99.90
55173;DHT22;41061;52.822;6.860;2024-01-16T01:42:03;-0.20;99.90
55173;DHT22;41061;52.822;6.860;2024-01-16T01:44:28;-0.20;99.90
55173;DHT22;41061;52.822;6.860;2024-01-16T01:46:58;-0.10;99.90
55173;DHT22;41061;52.822;6.860;2024-01-16T01:49:25;-0.10;99.90
55173;DHT22;41061;52.822;6.860;2024-01-16T01:51:51;-0.10;99.90
55173;DHT22;41061;52.822;6.860;2024-01-16T01:54:17;0.00;99.90
55173;DHT22;41061;52.822;6.860;2024-01-16T01:56:44;0.00;99.90
55173;DHT22;41061;52.822;6.860;2024-01-16T01:59:11;0.00;99.90
55173;DHT22;41061;52.822;6.860;2024-01-16T02:01:39;0.10;99.90
55173;DHT22;41061;52.822;6.860;2024-01-16T02:04:06;0.10;99.90
55173;DHT22;41061;52.822;6.860;2024-01-16T02:06:32;0.10;99.90
55173;DHT22;41061;52.822;6.860;2024-01-16T02:08:59;0.10;99.90
55173;DHT22;41061;52.822;6.860;2024-01-16T02:11:25;0.10;99.90
55173;DHT22;41061;52.822;6.860;2024-01-16T02:13:51;0.00;99.90
55173;DHT22;41061;52.822;6.860;2024-01-16T02:16:26;0.10;99.90
55173;DHT22;41061;52.822;6.860;2024-01-16T02:18:52;-0.10;99.90
55173;DHT22;41061;52.822;6.860;2024-01-16T02:21:21;-0.10;99.90
55173;DHT22;41061;52.822;6.860;2024-01-16T02:23:47;-0.10;99.90
55173;DHT22;41061;52.822;6.860;2024-01-16T02:26:14;-0.20;99.90
55173;DHT22;41061;52.822;6.860;2024-01-16T02:28:41;-0.20;99.90
55173;DHT22;41061;52.822;6.860;2024-01-16T02:31:08;-0.20;99.90
55173;DHT22;41061;52.822;6.860;2024-01-16T02:33:33;-0.20;99.90
55173;DHT22;41061;52.822;6.860;2024-01-16T02:35:59;-0.20;99.90
55173;DHT22;41061;52.822;6.860;2024-01-16T02:38:24;-0.20;99.90
55173;DHT22;41061;52.822;6.860;2024-01-16T02:40:50;-0.20;99.90
55173;DHT22;41061;52.822;6.860;2024-01-16T02:43:16;-0.30;99.90
55173;DHT22;41061;52.822;6.860;2024-01-16T02:45:42;-0.30;99.90
55173;DHT22;41061;52.822;6.860;2024-01-16T02:48:08;-0.30;99.90
55173;DHT22;41061;52.822;6.860;2024-01-16T02:50:34;-0.20;99.90
55173;DHT22;41061;52.822;6.860;2024-01-16T02:53:00;-0.20;99.90
55173;DHT22;41061;52.822;6.860;2024-01-16T02:55:25;-0.20;99.90
55173;DHT22;41061;52.822;6.860;2024-01-16T02:57:51;-0.20;99.90
55173;DHT22;41061;52.822;6.860;2024-01-16T03:00:17;-0.10;99.90
55173;DHT22;41061;52.822;6.860;2024-01-16T03:02:43;-0.10;99.90
55173;DHT22;41061;52.822;6.860;2024-01-16T03:05:10;0.00;99.90
55173;DHT22;41061;52.822;6.860;2024-01-16T03:07:36;0.10;99.90
55173;DHT22;41061;52.822;6.860;2024-01-16T03:10:03;0.00;99.90
55173;DHT22;41061;52.822;6.860;2024-01-16T03:12:28;0.00;99.90
55173;DHT22;41061;52.822;6.860;2024-01-16T03:14:54;0.10;99.90
55173;DHT22;41061;52.822;6.860;2024-01-16T03:17:20;0.00;99.90
55173;DHT22;41061;52.822;6.860;2024-01-16T03:19:46;0.10;99.90
55173;DHT22;41061;52.822;6.860;2024-01-16T03:22:12;0.10;99.90
55173;DHT22;41061;52.822;6.860;2024-01-16T03:24:38;0.10;99.90
55173;DHT22;41061;52.822;6.860;2024-01-16T03:27:04;0.10;99.90
55173;DHT22;41061;52.822;6.860;2024-01-16T03:29:30;0.10;99.90
55173;DHT22;41061;52.822;6.860;2024-01-16T03:31:56;0.00;99.90
55173;DHT22;41061;52.822;6.860;2024-01-16T03:34:23;0.00;99.90
55173;DHT22;41061;52.822;6.860;2024-01-16T03:36:49;0.00;99.90
55173;DHT22;41061;52.822;6.860;2024-01-16T03:39:14;-0.10;99.90
55173;DHT22;41061;52.822;6.860;2024-01-16T03:41:40;-0.20;99.90
55173;DHT22;41061;52.822;6.860;2024-01-16T03:44:06;-0.20;99.90
55173;DHT22;41061;52.822;6.860;2024-01-16T03:46:31;-0.30;99.90
55173;DHT22;41061;52.822;6.860;2024-01-16T03:48:57;-0.30;99.90
55173;DHT22;41061;52.822;6.860;2024-01-16T03:51:22;-0.30;99.90
55173;DHT22;41061;52.822;6.860;2024-01-16T03:53:48;-0.30;99.90
55173;DHT22;41061;52.822;6.860;2024-01-16T03:56:15;-0.30;99.90
55173;DHT22;41061;52.822;6.860;2024-01-16T03:58:41;-0.30;99.90
55173;DHT22;41061;52.822;6.860;2024-01-16T04:01:08;-0.30;99.90
55173;DHT22;41061;52.822;6.860;2024-01-16T04:03:34;-0.30;99.90
55173;DHT22;41061;52.822;6.860;2024-01-16T04:06:04;-0.30;99.90
55173;DHT22;41061;52.822;6.860;2024-01-16T04:08:39;-0.30;99.90
55173;DHT22;41061;52.822;6.860;2024-01-16T04:11:05;-0.30;99.90
55173;DHT22;41061;52.822;6.860;2024-01-16T04:13:30;-0.30;99.90
55173;DHT22;41061;52.822;6.860;2024-01-16T04:15:56;-0.30;99.90
55173;DHT22;41061;52.822;6.860;2024-01-16T04:18:22;-0.30;99.90
55173;DHT22;41061;52.822;6.860;2024-01-16T04:20:48;-0.30;99.90
55173;DHT22;41061;52.822;6.860;2024-01-16T04:23:13;-0.20;99.90
55173;DHT22;41061;52.822;6.860;2024-01-16T04:25:39;-0.20;99.90
55173;DHT22;41061;52.822;6.860;2024-01-16T04:28:05;-0.20;99.90
55173;DHT22;41061;52.822;6.860;2024-01-16T04:30:31;-0.20;99.90
55173;DHT22;41061;52.822;6.860;2024-01-16T04:32:56;-0.20;99.90
55173;DHT22;41061;52.822;6.860;2024-01-16T04:35:22;-0.20;99.90
55173;DHT22;41061;52.822;6.860;2024-01-16T04:37:48;-0.20;99.90
55173;DHT22;41061;52.822;6.860;2024-01-16T04:40:13;-0.20;99.90
55173;DHT22;41061;52.822;6.860;2024-01-16T04:42:39;-0.20;99.90
55173;DHT22;41061;52.822;6.860;2024-01-16T04:45:05;-0.20;99.90
55173;DHT22;41061;52.822;6.860;2024-01-16T04:47:31;-0.10;99.90
55173;DHT22;41061;52.822;6.860;2024-01-16T04:49:57;-0.10;99.90
55173;DHT22;41061;52.822;6.860;2024-01-16T04:52:22;-0.10;99.90
55173;DHT22;41061;52.822;6.860;2024-01-16T04:54:48;-0.10;99.90
55173;DHT22;41061;52.822;6.860;2024-01-16T04:57:14;-0.10;99.90
55173;DHT22;41061;52.822;6.860;2024-01-16T04:59:40;-0.10;99.90
55173;DHT22;41061;52.822;6.860;2024-01-16T05:02:07;-0.10;99.90
55173;DHT22;41061;52.822;6.860;2024-01-16T05:04:36;-0.10;99.90
55173;DHT22;41061;52.822;6.860;2024-01-16T05:07:02;0.00;99.90
55173;DHT22;41061;52.822;6.860;2024-01-16T05:09:28;0.00;99.90
55173;DHT22;41061;52.822;6.860;2024-01-16T05:11:54;0.00;99.90
55173;DHT22;41061;52.822;6.860;2024-01-16T05:14:19;0.00;99.90
55173;DHT22;41061;52.822;6.860;2024-01-16T05:16:47;0.00;99.90
55173;DHT22;41061;52.822;6.860;2024-01-16T05:19:13;0.00;99.90
55173;DHT22;41061;52.822;6.860;2024-01-16T05:21:40;0.00;99.90
55173;DHT22;41061;52.822;6.860;2024-01-16T05:24:08;0.00;99.90
55173;DHT22;41061;52.822;6.860;2024-01-16T05:26:33;0.00;99.90
55173;DHT22;41061;52.822;6.860;2024-01-16T05:28:59;0.00;99.90
55173;DHT22;41061;52.822;6.860;2024-01-16T05:31:25;0.00;99.90
55173;DHT22;41061;52.822;6.860;2024-01-16T05:33:50;0.00;99.90
55173;DHT22;41061;52.822;6.860;2024-01-16T05:36:16;0.00;99.90
55173;DHT22;41061;52.822;6.860;2024-01-16T05:38:42;-0.10;99.90
55173;DHT22;41061;52.822;6.860;2024-01-16T05:41:10;0.00;99.90
55173;DHT22;41061;52.822;6.860;2024-01-16T05:43:36;0.00;99.90
55173;DHT22;41061;52.822;6.860;2024-01-16T05:46:02;0.00;99.90
55173;DHT22;41061;52.822;6.860;2024-01-16T05:48:27;0.00;99.90
55173;DHT22;41061;52.822;6.860;2024-01-16T05:50:53;0.00;99.90
55173;DHT22;41061;52.822;6.860;2024-01-16T05:53:18;0.00;99.90
55173;DHT22;41061;52.822;6.860;2024-01-16T05:55:44;0.10;99.90
55173;DHT22;41061;52.822;6.860;2024-01-16T05:58:10;0.00;99.90
55173;DHT22;41061;52.822;6.860;2024-01-16T06:00:35;0.00;99.90
55173;DHT22;41061;52.822;6.860;2024-01-16T06:03:01;0.10;99.90
55173;DHT22;41061;52.822;6.860;2024-01-16T06:05:27;0.00;99.90
55173;DHT22;41061;52.822;6.860;2024-01-16T06:07:52;0.10;99.90
55173;DHT22;41061;52.822;6.860;2024-01-16T06:10:18;0.00;99.90
55173;DHT22;41061;52.822;6.860;2024-01-16T06:12:44;0.00;99.90
55173;DHT22;41061;52.822;6.860;2024-01-16T06:15:09;0.00;99.90
55173;DHT22;41061;52.822;6.860;2024-01-16T06:17:36;0.00;99.90
55173;DHT22;41061;52.822;6.860;2024-01-16T06:20:03;0.00;99.90
55173;DHT22;41061;52.822;6.860;2024-01-16T06:22:29;0.10;99.90
55173;DHT22;41061;52.822;6.860;2024-01-16T06:24:56;0.10;99.90
55173;DHT22;41061;52.822;6.860;2024-01-16T06:27:21;0.10;99.90
55173;DHT22;41061;52.822;6.860;2024-01-16T06:29:48;0.10;99.90
55173;DHT22;41061;52.822;6.860;2024-01-16T06:32:14;0.10;99.90
55173;DHT22;41061;52.822;6.860;2024-01-16T06:34:40;0.20;99.90
55173;DHT22;41061;52.822;6.860;2024-01-16T06:37:05;0.20;99.90
55173;DHT22;41061;52.822;6.860;2024-01-16T06:39:31;0.20;99.90
55173;DHT22;41061;52.822;6.860;2024-01-16T06:41:57;0.20;99.90
55173;DHT22;41061;52.822;6.860;2024-01-16T06:44:22;0.20;99.90
55173;DHT22;41061;52.822;6.860;2024-01-16T06:46:48;0.20;99.90
55173;DHT22;41061;52.822;6.860;2024-01-16T06:49:14;0.20;99.90
55173;DHT22;41061;52.822;6.860;2024-01-16T06:51:42;0.20;99.90
55173;DHT22;41061;52.822;6.860;2024-01-16T06:54:08;0.30;99.90
55173;DHT22;41061;52.822;6.860;2024-01-16T06:56:34;0.20;99.90
55173;DHT22;41061;52.822;6.860;2024-01-16T06:59:00;0.20;99.90
55173;DHT22;41061;52.822;6.860;2024-01-16T07:01:26;0.20;99.90
55173;DHT22;41061;52.822;6.860;2024-01-16T07:03:52;0.20;99.90
55173;DHT22;41061;52.822;6.860;2024-01-16T07:06:18;0.20;99.90
55173;DHT22;41061;52.822;6.860;2024-01-16T07:08:43;0.20;99.90
55173;DHT22;41061;52.822;6.860;2024-01-16T07:11:09;0.20;99.90
55173;DHT22;41061;52.822;6.860;2024-01-16T07:13:39;0.20;99.90
55173;DHT22;41061;52.822;6.860;2024-01-16T07:16:04;0.20;99.90
55173;DHT22;41061;52.822;6.860;2024-01-16T07:18:30;0.20;99.90
55173;DHT22;41061;52.822;6.860;2024-01-16T07:20:56;0.20;99.90
55173;DHT22;41061;52.822;6.860;2024-01-16T07:23:22;0.20;99.90
55173;DHT22;41061;52.822;6.860;2024-01-16T07:25:47;0.30;99.90
55173;DHT22;41061;52.822;6.860;2024-01-16T07:28:13;0.20;99.90
55173;DHT22;41061;52.822;6.860;2024-01-16T07:30:40;0.20;99.90
55173;DHT22;41061;52.822;6.860;2024-01-16T07:33:06;0.20;99.90
55173;DHT22;41061;52.822;6.860;2024-01-16T07:35:31;0.30;99.90
55173;DHT22;41061;52.822;6.860;2024-01-16T07:37:57;0.20;99.90
55173;DHT22;41061;52.822;6.860;2024-01-16T07:40:23;0.20;99.90
55173;DHT22;41061;52.822;6.860;2024-01-16T07:42:49;0.20;99.90
55173;DHT22;41061;52.822;6.860;2024-01-16T07:45:17;0.20;99.90
55173;DHT22;41061;52.822;6.860;2024-01-16T07:47:43;0.20;99.90
55173;DHT22;41061;52.822;6.860;2024-01-16T07:50:09;0.20;99.90
55173;DHT22;41061;52.822;6.860;2024-01-16T07:52:35;0.20;99.90
55173;DHT22;41061;52.822;6.860;2024-01-16T07:55:01;0.20;99.90
55173;DHT22;41061;52.822;6.860;2024-01-16T07:57:27;0.20;99.90
55173;DHT22;41061;52.822;6.860;2024-01-16T07:59:52;0.20;99.90
55173;DHT22;41061;52.822;6.860;2024-01-16T08:02:18;0.20;99.90
55173;DHT22;41061;52.822;6.860;2024-01-16T08:04:44;0.20;99.90
55173;DHT22;41061;52.822;6.860;2024-01-16T08:07:09;0.20;99.90
55173;DHT22;41061;52.822;6.860;2024-01-16T08:09:35;0.20;99.90
55173;DHT22;41061;52.822;6.860;2024-01-16T08:12:01;0.20;99.90
55173;DHT22;41061;52.822;6.860;2024-01-16T08:14:28;0.20;99.90
55173;DHT22;41061;52.822;6.860;2024-01-16T08:16:54;0.20;99.90
55173;DHT22;41061;52.822;6.860;2024-01-16T08:19:20;0.20;99.90
55173;DHT22;41061;52.822;6.860;2024-01-16T08:21:45;0.30;99.90
55173;DHT22;41061;52.822;6.860;2024-01-16T08:24:11;0.30;99.90
55173;DHT22;41061;52.822;6.860;2024-01-16T08:26:37;0.30;99.90
55173;DHT22;41061;52.822;6.860;2024-01-16T08:29:03;0.30;99.90
55173;DHT22;41061;52.822;6.860;2024-01-16T08:31:31;0.30;99.90
55173;DHT22;41061;52.822;6.860;2024-01-16T08:33:56;0.30;99.90
55173;DHT22;41061;52.822;6.860;2024-01-16T08:36:23;0.40;99.90
55173;DHT22;41061;52.822;6.860;2024-01-16T08:38:48;0.50;99.90
55173;DHT22;41061;52.822;6.860;2024-01-16T08:41:14;0.50;99.90
55173;DHT22;41061;52.822;6.860;2024-01-16T08:43:40;0.60;99.90
55173;DHT22;41061;52.822;6.860;2024-01-16T08:46:06;0.60;99.90
55173;DHT22;41061;52.822;6.860;2024-01-16T08:48:32;0.70;99.90
55173;DHT22;41061;52.822;6.860;2024-01-16T08:50:58;0.70;99.90
55173;DHT22;41061;52.822;6.860;2024-01-16T08:53:24;0.70;99.90
55173;DHT22;41061;52.822;6.860;2024-01-16T08:55:50;0.70;99.90
55173;DHT22;41061;52.822;6.860;2024-01-16T08:58:15;0.80;99.90
55173;DHT22;41061;52.822;6.860;2024-01-16T09:00:41;0.80;99.90
55173;DHT22;41061;52.822;6.860;2024-01-16T09:03:06;0.90;99.90
55173;DHT22;41061;52.822;6.860;2024-01-16T09:05:33;0.90;99.90
55173;DHT22;41061;52.822;6.860;2024-01-16T09:08:02;0.90;99.90
55173;DHT22;41061;52.822;6.860;2024-01-16T09:10:28;1.00;99.90
55173;DHT22;41061;52.822;6.860;2024-01-16T09:12:55;1.00;99.90
55173;DHT22;41061;52.822;6.860;2024-01-16T09:15:20;1.00;99.90
55173;DHT22;41061;52.822;6.860;2024-01-16T09:17:46;1.00;99.90
55173;DHT22;41061;52.822;6.860;2024-01-16T09:20:12;1.00;99.90
55173;DHT22;41061;52.822;6.860;2024-01-16T09:22:38;1.00;99.90
55173;DHT22;41061;52.822;6.860;2024-01-16T09:25:03;1.00;99.90
55173;DHT22;41061;52.822;6.860;2024-01-16T09:27:31;1.10;99.90
55173;DHT22;41061;52.822;6.860;2024-01-16T09:29:56;1.10;99.90
55173;DHT22;41061;52.822;6.860;2024-01-16T09:32:22;1.10;99.90
55173;DHT22;41061;52.822;6.860;2024-01-16T09:34:48;1.20;99.90
55173;DHT22;41061;52.822;6.860;2024-01-16T09:37:14;1.20;99.90
55173;DHT22;41061;52.822;6.860;2024-01-16T09:39:43;1.20;99.90
55173;DHT22;41061;52.822;6.860;2024-01-16T09:42:09;1.20;99.90
55173;DHT22;41061;52.822;6.860;2024-01-16T09:47:02;1.40;99.90
55173;DHT22;41061;52.822;6.860;2024-01-16T09:49:30;1.40;99.90
55173;DHT22;41061;52.822;6.860;2024-01-16T09:51:56;1.40;99.90
55173;DHT22;41061;52.822;6.860;2024-01-16T09:54:24;1.50;99.90
55173;DHT22;41061;52.822;6.860;2024-01-16T09:56:53;1.50;99.90
55173;DHT22;41061;52.822;6.860;2024-01-16T09:59:22;1.50;99.90
55173;DHT22;41061;52.822;6.860;2024-01-16T10:01:55;1.50;99.90
55173;DHT22;41061;52.822;6.860;2024-01-16T10:04:21;1.60;99.90
55173;DHT22;41061;52.822;6.860;2024-01-16T10:06:48;1.50;99.90
55173;DHT22;41061;52.822;6.860;2024-01-16T10:14:08;1.80;99.90
55173;DHT22;41061;52.822;6.860;2024-01-16T10:19:23;1.70;99.90
55173;DHT22;41061;52.822;6.860;2024-01-16T10:24:15;1.80;99.90
55173;DHT22;41061;52.822;6.860;2024-01-16T10:26:41;1.70;99.90
55173;DHT22;41061;52.822;6.860;2024-01-16T10:29:06;1.70;99.90
55173;DHT22;41061;52.822;6.860;2024-01-16T10:31:32;1.70;99.90
55173;DHT22;41061;52.822;6.860;2024-01-16T10:33:58;1.70;99.90
55173;DHT22;41061;52.822;6.860;2024-01-16T10:36:24;1.70;99.90
55173;DHT22;41061;52.822;6.860;2024-01-16T10:38:51;1.70;99.90
55173;DHT22;41061;52.822;6.860;2024-01-16T10:41:23;1.70;99.90
55173;DHT22;41061;52.822;6.860;2024-01-16T10:44:04;1.60;99.90
55173;DHT22;41061;52.822;6.860;2024-01-16T10:46:31;1.70;99.90
55173;DHT22;41061;52.822;6.860;2024-01-16T10:49:04;1.70;99.90
55173;DHT22;41061;52.822;6.860;2024-01-16T10:51:31;1.80;99.90
55173;DHT22;41061;52.822;6.860;2024-01-16T10:54:02;1.80;99.90
55173;DHT22;41061;52.822;6.860;2024-01-16T10:56:33;1.90;99.90
55173;DHT22;41061;52.822;6.860;2024-01-16T10:59:15;1.80;99.90
55173;DHT22;41061;52.822;6.860;2024-01-16T11:01:43;1.90;99.90
55173;DHT22;41061;52.822;6.860;2024-01-16T11:04:12;1.90;99.90
55173;DHT22;41061;52.822;6.860;2024-01-16T11:06:39;1.90;99.90
55173;DHT22;41061;52.822;6.860;2024-01-16T11:09:07;1.90;99.90
55173;DHT22;41061;52.822;6.860;2024-01-16T11:11:34;1.80;99.90
55173;DHT22;41061;52.822;6.860;2024-01-16T11:14:02;1.80;99.90
55173;DHT22;41061;52.822;6.860;2024-01-16T11:16:30;1.80;99.90
55173;DHT22;41061;52.822;6.860;2024-01-16T11:18:57;1.90;99.90
55173;DHT22;41061;52.822;6.860;2024-01-16T11:21:24;1.80;99.90
55173;DHT22;41061;52.822;6.860;2024-01-16T11:23:50;1.80;99.90
55173;DHT22;41061;52.822;6.860;2024-01-16T11:28:58;1.80;99.90
55173;DHT22;41061;52.822;6.860;2024-01-16T11:31:35;1.80;99.90
55173;DHT22;41061;52.822;6.860;2024-01-16T11:34:02;1.70;99.90
55173;DHT22;41061;52.822;6.860;2024-01-16T11:36:49;1.70;99.90
55173;DHT22;41061;52.822;6.860;2024-01-16T11:39:22;1.80;99.90
55173;DHT22;41061;52.822;6.860;2024-01-16T11:41:49;1.80;99.90
55173;DHT22;41061;52.822;6.860;2024-01-16T11:44:36;1.80;99.90
55173;DHT22;41061;52.822;6.860;2024-01-16T11:47:02;1.80;99.90
55173;DHT22;41061;52.822;6.860;2024-01-16T11:49:28;1.80;99.90
55173;DHT22;41061;52.822;6.860;2024-01-16T11:51:57;1.90;99.90
55173;DHT22;41061;52.822;6.860;2024-01-16T12:04:55;1.80;99.90
55173;DHT22;41061;52.822;6.860;2024-01-16T12:07:22;1.80;99.90
55173;DHT22;41061;52.822;6.860;2024-01-16T12:09:48;1.80;99.90
55173;DHT22;41061;52.822;6.860;2024-01-16T12:12:15;1.80;99.90
55173;DHT22;41061;52.822;6.860;2024-01-16T12:17:18;1.80;99.90
55173;DHT22;41061;52.822;6.860;2024-01-16T12:19:45;1.80;99.90
55173;DHT22;41061;52.822;6.860;2024-01-16T12:22:15;1.80;99.90
55173;DHT22;41061;52.822;6.860;2024-01-16T12:24:42;1.70;99.90
55173;DHT22;41061;52.822;6.860;2024-01-16T12:27:08;1.80;99.90
55173;DHT22;41061;52.822;6.860;2024-01-16T12:42:10;1.60;99.90
55173;DHT22;41061;52.822;6.860;2024-01-16T12:44:37;1.60;99.90
55173;DHT22;41061;52.822;6.860;2024-01-16T12:49:32;1.60;99.90
55173;DHT22;41061;52.822;6.860;2024-01-16T12:52:18;1.60;99.90
55173;DHT22;41061;52.822;6.860;2024-01-16T12:54:47;1.70;99.90
55173;DHT22;41061;52.822;6.860;2024-01-16T12:59:45;1.60;99.90
55173;DHT22;41061;52.822;6.860;2024-01-16T13:02:20;1.60;99.90
55173;DHT22;41061;52.822;6.860;2024-01-16T13:04:47;1.60;99.90
55173;DHT22;41061;52.822;6.860;2024-01-16T13:07:16;1.70;99.90
55173;DHT22;41061;52.822;6.860;2024-01-16T13:09:43;1.60;99.90
55173;DHT22;41061;52.822;6.860;2024-01-16T13:12:09;1.70;99.90
55173;DHT22;41061;52.822;6.860;2024-01-16T13:14:44;1.70;99.90
55173;DHT22;41061;52.822;6.860;2024-01-16T13:17:10;1.70;99.90
55173;DHT22;41061;52.822;6.860;2024-01-16T13:19:36;1.70;99.90
55173;DHT22;41061;52.822;6.860;2024-01-16T13:22:02;1.80;99.90
55173;DHT22;41061;52.822;6.860;2024-01-16T13:24:28;1.80;99.90
55173;DHT22;41061;52.822;6.860;2024-01-16T13:26:54;1.70;99.90
55173;DHT22;41061;52.822;6.860;2024-01-16T13:29:19;1.80;99.90
55173;DHT22;41061;52.822;6.860;2024-01-16T13:31:45;1.80;99.90
55173;DHT22;41061;52.822;6.860;2024-01-16T13:36:37;1.70;99.90
55173;DHT22;41061;52.822;6.860;2024-01-16T13:39:03;1.70;99.90
55173;DHT22;41061;52.822;6.860;2024-01-16T13:41:29;1.80;99.90
55173;DHT22;41061;52.822;6.860;2024-01-16T13:43:55;1.70;99.90
55173;DHT22;41061;52.822;6.860;2024-01-16T13:46:21;1.60;99.90
55173;DHT22;41061;52.822;6.860;2024-01-16T13:48:47;1.70;99.90
55173;DHT22;41061;52.822;6.860;2024-01-16T13:51:13;1.70;99.90
55173;DHT22;41061;52.822;6.860;2024-01-16T13:53:39;1.60;99.90
55173;DHT22;41061;52.822;6.860;2024-01-16T13:56:05;1.60;99.90
55173;DHT22;41061;52.822;6.860;2024-01-16T13:58:31;1.60;99.90
55173;DHT22;41061;52.822;6.860;2024-01-16T14:00:57;1.50;99.90
55173;DHT22;41061;52.822;6.860;2024-01-16T14:03:22;1.50;99.90
55173;DHT22;41061;52.822;6.860;2024-01-16T14:05:48;1.50;99.90
55173;DHT22;41061;52.822;6.860;2024-01-16T14:08:14;1.60;99.90
55173;DHT22;41061;52.822;6.860;2024-01-16T14:28:01;2.10;99.90
55173;DHT22;41061;52.822;6.860;2024-01-16T14:30:32;2.00;99.90
55173;DHT22;41061;52.822;6.860;2024-01-16T14:32:57;2.00;99.90
55173;DHT22;41061;52.822;6.860;2024-01-16T14:35:23;1.90;99.90
55173;DHT22;41061;52.822;6.860;2024-01-16T14:37:50;1.80;99.90
55173;DHT22;41061;52.822;6.860;2024-01-16T14:40:16;1.80;99.90
55173;DHT22;41061;52.822;6.860;2024-01-16T14:42:49;1.70;99.90
55173;DHT22;41061;52.822;6.860;2024-01-16T14:45:25;1.70;99.90
55173;DHT22;41061;52.822;6.860;2024-01-16T14:47:53;1.60;99.90
55173;DHT22;41061;52.822;6.860;2024-01-16T14:50:22;1.60;99.90
55173;DHT22;41061;52.822;6.860;2024-01-16T14:52:50;1.50;99.90
55173;DHT22;41061;52.822;6.860;2024-01-16T14:55:16;1.50;99.90
55173;DHT22;41061;52.822;6.860;2024-01-16T14:57:42;1.60;99.90
55173;DHT22;41061;52.822;6.860;2024-01-16T15:00:10;1.60;99.90
55173;DHT22;41061;52.822;6.860;2024-01-16T15:02:41;1.60;99.90
55173;DHT22;41061;52.822;6.860;2024-01-16T15:05:07;1.60;99.90
55173;DHT22;41061;52.822;6.860;2024-01-16T15:07:33;1.60;99.90
55173;DHT22;41061;52.822;6.860;2024-01-16T15:10:00;1.60;99.90
55173;DHT22;41061;52.822;6.860;2024-01-16T15:12:26;1.60;99.90
55173;DHT22;41061;52.822;6.860;2024-01-16T15:14:52;1.60;99.90
55173;DHT22;41061;52.822;6.860;2024-01-16T15:17:17;1.60;99.90
55173;DHT22;41061;52.822;6.860;2024-01-16T15:19:43;1.60;99.90
55173;DHT22;41061;52.822;6.860;2024-01-16T15:22:09;1.60;99.90
55173;DHT22;41061;52.822;6.860;2024-01-16T15:24:34;1.50;99.90
55173;DHT22;41061;52.822;6.860;2024-01-16T15:27:01;1.50;99.90
55173;DHT22;41061;52.822;6.860;2024-01-16T15:29:26;1.60;99.90
55173;DHT22;41061;52.822;6.860;2024-01-16T15:31:52;1.60;99.90
55173;DHT22;41061;52.822;6.860;2024-01-16T15:34:18;1.50;99.90
55173;DHT22;41061;52.822;6.860;2024-01-16T15:36:47;1.60;99.90
55173;DHT22;41061;52.822;6.860;2024-01-16T15:39:14;1.60;99.90
55173;DHT22;41061;52.822;6.860;2024-01-16T15:41:43;1.60;99.90
55173;DHT22;41061;52.822;6.860;2024-01-16T15:44:10;1.50;99.90
55173;DHT22;41061;52.822;6.860;2024-01-16T15:49:21;1.50;99.90
55173;DHT22;41061;52.822;6.860;2024-01-16T15:51:47;1.50;99.90
55173;DHT22;41061;52.822;6.860;2024-01-16T15:54:12;1.50;99.90
55173;DHT22;41061;52.822;6.860;2024-01-16T15:56:38;1.50;99.90
55173;DHT22;41061;52.822;6.860;2024-01-16T15:59:04;1.40;99.90
55173;DHT22;41061;52.822;6.860;2024-01-16T16:01:30;1.40;99.90
55173;DHT22;41061;52.822;6.860;2024-01-16T16:03:57;1.40;99.90
55173;DHT22;41061;52.822;6.860;2024-01-16T16:06:23;1.40;99.90
55173;DHT22;41061;52.822;6.860;2024-01-16T16:08:49;1.30;99.90
55173;DHT22;41061;52.822;6.860;2024-01-16T16:11:15;1.30;99.90
55173;DHT22;41061;52.822;6.860;2024-01-16T16:13:42;1.20;99.90
55173;DHT22;41061;52.822;6.860;2024-01-16T16:16:08;1.20;99.90
55173;DHT22;41061;52.822;6.860;2024-01-16T16:18:33;1.20;99.90
55173;DHT22;41061;52.822;6.860;2024-01-16T16:21:03;1.10;99.90
55173;DHT22;41061;52.822;6.860;2024-01-16T16:23:30;1.00;99.90
55173;DHT22;41061;52.822;6.860;2024-01-16T16:25:57;1.00;99.90
55173;DHT22;41061;52.822;6.860;2024-01-16T16:28:23;1.00;99.90
55173;DHT22;41061;52.822;6.860;2024-01-16T16:30:49;1.00;99.90
55173;DHT22;41061;52.822;6.860;2024-01-16T16:33:14;1.00;99.90
55173;DHT22;41061;52.822;6.860;2024-01-16T16:35:40;0.90;99.90
55173;DHT22;41061;52.822;6.860;2024-01-16T16:38:07;0.90;99.90
55173;DHT22;41061;52.822;6.860;2024-01-16T16:40:36;0.90;99.90
55173;DHT22;41061;52.822;6.860;2024-01-16T16:43:02;1.00;99.90
55173;DHT22;41061;52.822;6.860;2024-01-16T16:45:30;1.00;99.90
55173;DHT22;41061;52.822;6.860;2024-01-16T16:47:56;1.00;99.90